Time;durP1;ratioP1;P1;durP2;ratioP2;P2;SDS_P1;SDS_P2;PMS_P1;PMS_P2;Temp;Humidity;BMP_temperature;BMP_pressure;BME280_temperature;BME280_humidity;BME280_pressure;Samples;Min_cycle;Max_cycle;Signal;HPM_P1;HPM_P2
2022/06/25 00:01:18;;;;;;;;;3.00;2.50;;;;;-143.57;100.00;65101.44;5098381;27;45256;-46
2022/06/25 00:03:44;;;;;;;;;2.75;2.00;;;;;-143.57;100.00;65101.44;5097936;27;47185;-44
2022/06/25 00:06:10;;;;;;;;;1.00;1.00;;;;;-143.57;100.00;65101.44;5097953;27;45304;-46
2022/06/25 00:08:37;;;;;;;;;4.75;2.00;;;;;-143.57;100.00;65101.44;5097956;27;45410;-45
2022/06/25 00:11:04;;;;;;;;;2.25;2.25;;;;;-143.57;100.00;65101.44;5098192;27;45462;-47
2022/06/25 00:13:29;;;;;;;;;2.00;2.00;;;;;-143.57;100.00;65101.44;5097852;27;45433;-42
2022/06/25 00:15:55;;;;;;;;;3.00;2.00;;;;;-143.57;100.00;65101.44;5097811;27;45350;-43
2022/06/25 00:18:20;;;;;;;;;3.50;3.00;;;;;-143.57;100.00;65101.44;5097960;27;45312;-43
2022/06/25 00:20:46;;;;;;;;;5.50;3.00;;;;;-143.57;100.00;65101.44;5097973;27;45426;-44
2022/06/25 00:23:12;;;;;;;;;2.50;2.50;;;;;-143.57;100.00;65101.44;5096735;27;45375;-45
2022/06/25 00:25:38;;;;;;;;;2.00;2.00;;;;;-143.57;100.00;65101.44;5097832;27;45405;-46
2022/06/25 00:28:03;;;;;;;;;2.25;2.25;;;;;-143.57;100.00;65101.44;5097445;27;45287;-46
2022/06/25 00:30:29;;;;;;;;;3.00;3.00;;;;;-143.57;100.00;65101.44;5098283;27;45196;-48
2022/06/25 00:32:55;;;;;;;;;2.00;2.00;;;;;-143.57;100.00;65101.44;5097498;27;46838;-43
2022/06/25 00:35:21;;;;;;;;;3.75;3.75;;;;;-143.57;100.00;65101.44;5097537;27;45465;-45
2022/06/25 00:37:46;;;;;;;;;5.00;3.25;;;;;-143.57;100.00;65101.44;5097883;27;45313;-43
2022/06/25 00:40:12;;;;;;;;;5.50;4.00;;;;;-143.57;100.00;65101.44;5097624;27;45313;-44
2022/06/25 00:42:41;;;;;;;;;3.00;2.00;;;;;-143.57;100.00;65101.44;5097752;27;45375;-43
2022/06/25 00:45:07;;;;;;;;;2.50;2.50;;;;;-143.57;100.00;65101.44;5097486;27;45426;-43
2022/06/25 00:47:32;;;;;;;;;6.00;3.00;;;;;-143.57;100.00;65101.44;5097573;27;45312;-46
2022/06/25 00:49:58;;;;;;;;;2.00;2.00;;;;;-143.57;100.00;65101.44;5098071;27;45448;-46
2022/06/25 00:52:25;;;;;;;;;3.00;3.00;;;;;-143.57;100.00;65101.44;5097373;27;46289;-44
2022/06/25 00:55:01;;;;;;;;;1.75;1.75;;;;;-143.57;100.00;65101.44;5097447;27;45312;-44
2022/06/25 00:57:31;;;;;;;;;3.75;2.00;;;;;-143.57;100.00;65101.44;5097595;27;45442;-45
2022/06/25 01:00:06;;;;;;;;;5.25;3.75;;;;;-143.57;100.00;65101.44;5097733;27;45190;-44
2022/06/25 01:02:32;;;;;;;;;3.25;2.00;;;;;-143.57;100.00;65101.44;5097026;27;46598;-45
2022/06/25 01:04:57;;;;;;;;;2.50;2.50;;;;;-143.57;100.00;65101.44;5097361;27;45303;-44
2022/06/25 01:07:23;;;;;;;;;5.25;4.00;;;;;-143.57;100.00;65101.44;5097290;27;45280;-46
2022/06/25 01:09:49;;;;;;;;;3.00;3.00;;;;;-143.57;100.00;65101.44;5097756;27;45236;-43
2022/06/25 01:12:15;;;;;;;;;4.25;2.50;;;;;-143.57;100.00;65101.44;5096893;27;45330;-44
2022/06/25 01:14:41;;;;;;;;;5.75;3.25;;;;;-143.57;100.00;65101.44;5096913;27;45485;-44
2022/06/25 01:17:10;;;;;;;;;2.50;2.50;;;;;-143.57;100.00;65101.44;5097365;27;45448;-47
2022/06/25 01:19:36;;;;;;;;;2.00;2.00;;;;;-143.57;100.00;65101.44;5097286;27;45372;-44
2022/06/25 01:22:03;;;;;;;;;2.00;2.00;;;;;-143.57;100.00;65101.44;5096763;27;45537;-45
2022/06/25 01:24:29;;;;;;;;;2.75;2.75;;;;;-143.57;100.00;65101.44;5097103;27;45275;-41
2022/06/25 01:26:55;;;;;;;;;2.75;2.75;;;;;-143.57;100.00;65101.44;5096996;27;45442;-46
2022/06/25 01:29:20;;;;;;;;;3.00;1.75;;;;;-143.57;100.00;65101.44;5097449;27;45404;-45
2022/06/25 01:31:46;;;;;;;;;6.50;4.00;;;;;-143.57;100.00;65101.44;5098970;27;46955;-44
2022/06/25 01:34:11;;;;;;;;;3.00;2.00;;;;;-143.57;100.00;65101.44;5100329;27;45428;-43
2022/06/25 01:36:36;;;;;;;;;3.50;2.25;;;;;-143.57;100.00;65101.44;5100542;27;45279;-44
2022/06/25 01:39:02;;;;;;;;;2.00;2.00;;;;;-143.57;100.00;65101.44;5100587;27;45429;-44
2022/06/25 01:41:27;;;;;;;;;3.50;1.75;;;;;-143.57;100.00;65101.44;5100425;27;46045;-43
2022/06/25 01:43:53;;;;;;;;;2.75;2.00;;;;;-143.57;100.00;65101.44;5100126;27;45399;-44
2022/06/25 01:46:18;;;;;;;;;2.50;2.50;;;;;-143.57;100.00;65101.44;5100330;27;45470;-44
2022/06/25 01:48:44;;;;;;;;;4.25;3.00;;;;;-143.57;100.00;65101.44;5100565;27;45292;-43
2022/06/25 01:51:09;;;;;;;;;2.25;2.00;;;;;-143.57;100.00;65101.44;5100088;27;46925;-46
2022/06/25 01:53:35;;;;;;;;;3.00;3.00;;;;;-143.57;100.00;65101.44;5100159;27;45450;-46
2022/06/25 01:56:00;;;;;;;;;4.00;3.00;;;;;-143.57;100.00;65101.44;5100269;27;45461;-44
2022/06/25 01:58:25;;;;;;;;;2.00;2.00;;;;;-143.57;100.00;65101.44;5100186;27;45327;-45
2022/06/25 02:00:51;;;;;;;;;3.50;3.00;;;;;-143.57;100.00;65101.44;5100147;27;45229;-43
2022/06/25 02:03:16;;;;;;;;;5.50;2.00;;;;;-143.57;100.00;65101.44;5100009;27;45332;-46
2022/06/25 02:05:57;;;;;;;;;1.75;1.50;;;;;-143.57;100.00;65101.44;5100236;27;45268;-44
2022/06/25 02:08:27;;;;;;;;;3.50;1.75;;;;;-143.57;100.00;65101.44;5100472;27;45326;-44
2022/06/25 02:10:52;;;;;;;;;1.50;1.50;;;;;-143.57;100.00;65101.44;5099654;27;45981;-43
2022/06/25 02:13:18;;;;;;;;;2.00;2.00;;;;;-143.57;100.00;65101.44;5115497;27;45436;-44
2022/06/25 02:15:44;;;;;;;;;1.25;1.25;;;;;-143.57;100.00;65101.44;5099846;27;45429;-45
2022/06/25 02:18:10;;;;;;;;;2.00;1.75;;;;;-143.57;100.00;65101.44;5099973;27;45342;-45
2022/06/25 02:20:36;;;;;;;;;3.25;1.25;;;;;-143.57;100.00;65101.44;5099659;27;47057;-45
2022/06/25 02:23:02;;;;;;;;;3.00;2.00;;;;;-143.57;100.00;65101.44;5099687;27;45380;-47
2022/06/25 02:25:27;;;;;;;;;3.00;1.00;;;;;-143.57;100.00;65101.44;5100247;27;45373;-46
2022/06/25 02:27:53;;;;;;;;;4.25;2.00;;;;;-143.57;100.00;65101.44;5100042;27;45422;-44
2022/06/25 02:30:18;;;;;;;;;2.50;1.00;;;;;-143.57;100.00;65101.44;5099753;27;45921;-49
2022/06/25 02:32:43;;;;;;;;;1.25;1.25;;;;;-143.57;100.00;65101.44;5115610;27;45395;-43
2022/06/25 02:35:09;;;;;;;;;3.00;2.00;;;;;-143.57;100.00;65101.44;5099758;27;45357;-45
2022/06/25 02:37:34;;;;;;;;;2.00;2.00;;;;;-143.57;100.00;65101.44;5100073;27;45301;-46
2022/06/25 02:40:00;;;;;;;;;2.50;2.00;;;;;-143.57;100.00;65101.44;5099444;27;45406;-46
2022/06/25 02:42:32;;;;;;;;;1.50;1.00;;;;;-143.57;100.00;65101.44;5097871;27;45240;-45
2022/06/25 02:44:57;;;;;;;;;1.75;1.75;;;;;-143.57;100.00;65101.44;5099713;27;45286;-44
2022/06/25 02:47:23;;;;;;;;;2.25;1.00;;;;;-143.57;100.00;65101.44;5099644;27;45494;-45
2022/06/25 02:49:48;;;;;;;;;1.00;1.00;;;;;-143.57;100.00;65101.44;5099311;27;45903;-44
2022/06/25 02:52:13;;;;;;;;;2.50;1.25;;;;;-143.57;100.00;65101.44;5099386;27;45409;-43
2022/06/25 02:54:39;;;;;;;;;3.50;1.00;;;;;-143.57;100.00;65101.44;5099156;27;45393;-45
2022/06/25 02:59:48;;;;;;;;;1.00;1.00;;;;;-143.57;100.00;65101.44;5099214;27;45299;-43
2022/06/25 03:02:13;;;;;;;;;2.00;2.00;;;;;-143.57;100.00;65101.44;5099131;27;45351;-45
2022/06/25 03:04:39;;;;;;;;;1.50;1.00;;;;;-143.57;100.00;65101.44;5099410;27;45324;-45
2022/06/25 03:07:04;;;;;;;;;3.75;3.00;;;;;-143.57;100.00;65101.44;5099431;27;45544;-44
2022/06/25 03:09:30;;;;;;;;;1.00;1.00;;;;;-143.57;100.00;65101.44;5098950;27;45807;-46
2022/06/25 03:11:55;;;;;;;;;1.75;1.00;;;;;-143.57;100.00;65101.44;5099189;27;45300;-44
2022/06/25 03:14:20;;;;;;;;;2.00;0.25;;;;;-143.57;100.00;65101.44;5099052;27;45383;-46
2022/06/25 03:16:46;;;;;;;;;2.00;0.50;;;;;-143.57;100.00;65101.44;5099449;27;45380;-43
2022/06/25 03:19:11;;;;;;;;;2.00;1.00;;;;;-143.57;100.00;65101.44;5114556;27;46759;-42
2022/06/25 03:21:37;;;;;;;;;4.00;4.00;;;;;-143.57;100.00;65101.44;5098722;27;45229;-43
2022/06/25 03:24:03;;;;;;;;;0.00;0.00;;;;;-143.57;100.00;65101.44;5099227;27;45358;-43
2022/06/25 03:26:29;;;;;;;;;1.00;1.00;;;;;-143.57;100.00;65101.44;5099076;27;45400;-44
2022/06/25 03:28:56;;;;;;;;;0.00;0.00;;;;;-143.57;100.00;65101.44;5098608;27;46094;-47
2022/06/25 03:31:21;;;;;;;;;0.40;0.20;;;;;-143.57;100.00;65101.44;5098857;27;45425;-45
2022/06/25 03:33:48;;;;;;;;;3.00;1.00;;;;;-143.57;100.00;65101.44;5098718;27;45321;-46
2022/06/25 03:36:13;;;;;;;;;0.00;0.00;;;;;-143.57;100.00;65101.44;5099014;27;45388;-46
2022/06/25 03:38:38;;;;;;;;;0.00;0.00;;;;;-143.57;100.00;65101.44;5080363;27;46336;-44
2022/06/25 03:43:49;;;;;;;;;0.25;0.00;;;;;-143.57;100.00;65101.44;5098651;27;45338;-46
2022/06/25 03:46:14;;;;;;;;;1.00;1.00;;;;;-143.57;100.00;65101.44;5098626;27;45374;-43
2022/06/25 03:48:40;;;;;;;;;0.00;0.00;;;;;-143.57;100.00;65101.44;5098536;27;45374;-44
2022/06/25 03:51:05;;;;;;;;;0.75;0.75;;;;;-143.57;100.00;65101.44;5098645;27;45529;-46
2022/06/25 03:53:30;;;;;;;;;0.00;0.00;;;;;-143.57;100.00;65101.44;5098066;27;45323;-43
2022/06/25 03:55:56;;;;;;;;;0.75;0.75;;;;;-143.57;100.00;65101.44;5098678;27;45529;-44
2022/06/25 03:58:21;;;;;;;;;0.00;0.00;;;;;-143.57;100.00;65101.44;5097942;27;45711;-44
2022/06/25 04:00:47;;;;;;;;;2.00;0.00;;;;;-143.57;100.00;65101.44;5098250;27;45238;-45
2022/06/25 04:03:13;;;;;;;;;0.75;0.75;;;;;-143.57;100.00;65101.44;5098496;27;45414;-44
2022/06/25 04:05:38;;;;;;;;;0.25;0.25;;;;;-143.57;100.00;65101.44;5098201;27;45323;-43
2022/06/25 04:08:04;;;;;;;;;0.50;0.50;;;;;-143.57;100.00;65101.44;5098229;27;46198;-45
2022/06/25 04:10:29;;;;;;;;;3.50;2.00;;;;;-143.57;100.00;65101.44;5098152;27;45399;-47
2022/06/25 04:12:54;;;;;;;;;0.25;0.25;;;;;-143.57;100.00;65101.44;5098122;27;45313;-43
2022/06/25 04:15:20;;;;;;;;;0.50;0.50;;;;;-143.57;100.00;65101.44;5098349;27;45441;-42
2022/06/25 04:17:45;;;;;;;;;4.50;1.00;;;;;-143.57;100.00;65101.44;5097908;27;46343;-45
2022/06/25 04:20:11;;;;;;;;;1.75;1.00;;;;;-143.57;100.00;65101.44;5097288;27;45368;-45
2022/06/25 04:22:37;;;;;;;;;1.00;0.50;;;;;-143.57;100.00;65101.44;5097863;27;45412;-43
2022/06/25 04:25:03;;;;;;;;;1.00;1.00;;;;;-143.57;100.00;65101.44;5098067;27;45442;-43
2022/06/25 04:30:12;;;;;;;;;0.00;0.00;;;;;-143.57;100.00;65101.44;5098014;27;45465;-43
2022/06/25 04:32:37;;;;;;;;;1.00;1.00;;;;;-143.57;100.00;65101.44;5097966;27;45290;-45
2022/06/25 04:35:03;;;;;;;;;4.00;1.00;;;;;-143.57;100.00;65101.44;5097929;27;45428;-43
2022/06/25 04:37:28;;;;;;;;;0.75;0.75;;;;;-143.57;100.00;65101.44;5097536;27;45374;-43
2022/06/25 04:39:54;;;;;;;;;1.00;1.00;;;;;-143.57;100.00;65101.44;5097651;27;45536;-45
2022/06/25 04:42:19;;;;;;;;;1.00;1.00;;;;;-143.57;100.00;65101.44;5097961;27;45774;-44
2022/06/25 04:44:44;;;;;;;;;1.00;1.00;;;;;-143.57;100.00;65101.44;5097820;27;45321;-45
2022/06/25 04:47:10;;;;;;;;;2.00;1.00;;;;;-143.57;100.00;65101.44;5097459;27;45428;-45
2022/06/25 04:49:35;;;;;;;;;2.00;1.50;;;;;-143.57;100.00;65101.44;5097437;27;45292;-46
2022/06/25 04:52:01;;;;;;;;;1.00;1.00;;;;;-143.57;100.00;65101.44;5097268;27;45219;-44
2022/06/25 04:54:26;;;;;;;;;1.25;1.00;;;;;-143.57;100.00;65101.44;5097832;27;45201;-44
2022/06/25 04:56:52;;;;;;;;;1.25;1.25;;;;;-143.57;100.00;65101.44;5097465;27;45362;-45
2022/06/25 04:59:18;;;;;;;;;3.00;2.00;;;;;-143.57;100.00;65101.44;5097448;27;45310;-42
2022/06/25 05:01:44;;;;;;;;;2.00;2.00;;;;;-143.57;100.00;65101.44;5097329;27;45540;-43
2022/06/25 05:04:09;;;;;;;;;1.00;1.00;;;;;-143.57;100.00;65101.44;5097669;27;45397;-42
2022/06/25 05:06:35;;;;;;;;;1.00;1.00;;;;;-143.57;100.00;65101.44;5099208;27;46254;-42
2022/06/25 05:09:01;;;;;;;;;0.50;0.50;;;;;-143.57;100.00;65101.44;5101030;27;45566;-44
2022/06/25 05:11:26;;;;;;;;;3.00;1.50;;;;;-143.57;100.00;65101.44;5101087;27;45321;-44
2022/06/25 05:13:51;;;;;;;;;2.00;0.00;;;;;-143.57;100.00;65101.44;5100765;27;45434;-44
2022/06/25 05:16:17;;;;;;;;;1.00;1.00;;;;;-143.57;100.00;65101.44;5100806;27;46385;-45
2022/06/25 05:18:43;;;;;;;;;1.75;1.00;;;;;-143.57;100.00;65101.44;5100353;27;45430;-45
2022/06/25 05:21:08;;;;;;;;;1.60;1.60;;;;;-143.57;100.00;65101.44;5100924;27;45366;-44
2022/06/25 05:23:34;;;;;;;;;4.00;2.75;;;;;-143.57;100.00;65101.44;5100835;27;45431;-43
2022/06/25 05:25:59;;;;;;;;;2.00;2.00;;;;;-143.57;100.00;65101.44;5100508;27;46406;-43
2022/06/25 05:28:25;;;;;;;;;0.00;0.00;;;;;-143.57;100.00;65101.44;5100692;27;45330;-44
2022/06/25 05:30:50;;;;;;;;;2.25;1.00;;;;;-143.57;100.00;65101.44;5100678;27;45584;-44
2022/06/25 05:33:15;;;;;;;;;1.25;1.00;;;;;-143.57;100.00;65101.44;5100658;27;45540;-44
2022/06/25 05:35:41;;;;;;;;;1.75;0.75;;;;;-143.57;100.00;65101.44;5100687;27;46156;-43
2022/06/25 05:38:07;;;;;;;;;1.00;1.00;;;;;-143.57;100.00;65101.44;5100395;27;45425;-44
2022/06/25 05:40:32;;;;;;;;;0.00;0.00;;;;;-143.57;100.00;65101.44;5100720;27;45175;-45
2022/06/25 05:42:58;;;;;;;;;0.50;0.50;;;;;-143.57;100.00;65101.44;5100585;27;45208;-46
2022/06/25 05:45:23;;;;;;;;;0.50;0.50;;;;;-143.57;100.00;65101.44;5099886;27;46928;-45
2022/06/25 05:47:49;;;;;;;;;1.00;0.00;;;;;-143.57;100.00;65101.44;5100569;27;45238;-45
2022/06/25 05:50:14;;;;;;;;;1.00;1.00;;;;;-143.57;100.00;65101.44;5100690;27;45809;-44
2022/06/25 05:52:40;;;;;;;;;1.25;1.25;;;;;-143.57;100.00;65101.44;5100690;27;45414;-46
2022/06/25 05:55:06;;;;;;;;;0.25;0.25;;;;;-143.57;100.00;65101.44;5100249;27;45350;-44
2022/06/25 05:57:31;;;;;;;;;1.00;1.00;;;;;-143.57;100.00;65101.44;5100143;27;45393;-43
2022/06/25 05:59:57;;;;;;;;;0.00;0.00;;;;;-143.57;100.00;65101.44;5100558;27;45434;-44
2022/06/25 06:02:23;;;;;;;;;0.00;0.00;;;;;-143.57;100.00;65101.44;5100348;27;45447;-43
2022/06/25 06:04:48;;;;;;;;;0.75;0.75;;;;;-143.57;100.00;65101.44;5099998;27;46089;-45
2022/06/25 06:07:13;;;;;;;;;0.25;0.25;;;;;-143.57;100.00;65101.44;5100096;27;45503;-46
2022/06/25 06:09:39;;;;;;;;;1.75;1.50;;;;;-143.57;100.00;65101.44;5100138;27;45435;-45
2022/06/25 06:12:04;;;;;;;;;2.50;1.25;;;;;-143.57;100.00;65101.44;5100470;27;45361;-43
2022/06/25 06:14:30;;;;;;;;;1.75;1.00;;;;;-143.57;100.00;65101.44;5099778;27;45437;-44
2022/06/25 06:16:56;;;;;;;;;0.75;0.75;;;;;-143.57;100.00;65101.44;5099850;27;45294;-43
2022/06/25 06:19:22;;;;;;;;;0.40;0.40;;;;;-143.57;100.00;65101.44;5100137;27;45306;-42
2022/06/25 06:21:47;;;;;;;;;0.50;0.50;;;;;-143.57;100.00;65101.44;5099925;27;45297;-42
2022/06/25 06:24:13;;;;;;;;;1.00;1.00;;;;;-143.57;100.00;65101.44;5099852;27;45675;-43
2022/06/25 06:26:38;;;;;;;;;2.00;0.00;;;;;-143.57;100.00;65101.44;5080939;27;45456;-45
2022/06/25 06:29:04;;;;;;;;;1.00;1.00;;;;;-143.57;100.00;65101.44;5099938;27;45574;-45
2022/06/25 06:31:30;;;;;;;;;1.00;1.00;;;;;-143.57;100.00;65101.44;5099846;27;45154;-43
2022/06/25 06:33:56;;;;;;;;;4.75;2.00;;;;;-143.57;100.00;65101.44;5099429;27;46020;-46
2022/06/25 06:36:21;;;;;;;;;4.50;1.50;;;;;-143.57;100.00;65101.44;5099647;27;45293;-43
2022/06/25 06:38:46;;;;;;;;;1.50;1.25;;;;;-143.57;100.00;65101.44;5099812;27;45432;-45
2022/06/25 06:41:16;;;;;;;;;2.25;2.25;;;;;-143.57;100.00;65101.44;5081515;27;45560;-43
2022/06/25 06:43:42;;;;;;;;;1.00;1.00;;;;;-143.57;100.00;65101.44;5099331;27;47208;-44
2022/06/25 06:46:08;;;;;;;;;0.50;0.50;;;;;-143.57;100.00;65101.44;5099144;27;45533;-50
2022/06/25 06:48:33;;;;;;;;;1.25;0.75;;;;;-143.57;100.00;65101.44;5099774;27;45255;-44
2022/06/25 06:50:59;;;;;;;;;1.75;1.75;;;;;-143.57;100.00;65101.44;5099631;27;45375;-45
2022/06/25 06:53:24;;;;;;;;;5.75;2.25;;;;;-143.57;100.00;65101.44;5099071;27;45746;-45
2022/06/25 06:55:50;;;;;;;;;2.00;1.00;;;;;-143.57;100.00;65101.44;5099256;27;45266;-44
2022/06/25 06:58:16;;;;;;;;;0.80;0.80;;;;;-143.57;100.00;65101.44;5098477;27;45211;-44
2022/06/25 07:00:41;;;;;;;;;1.00;1.00;;;;;-143.57;100.00;65101.44;5099507;27;45496;-45
2022/06/25 07:03:07;;;;;;;;;2.00;1.00;;;;;-143.57;100.00;65101.44;5098988;27;46067;-43
2022/06/25 07:05:32;;;;;;;;;1.75;1.75;;;;;-143.57;100.00;65101.44;5098978;27;45442;-44
2022/06/25 07:07:57;;;;;;;;;1.25;1.25;;;;;-143.57;100.00;65101.44;5099489;27;45350;-46
2022/06/25 07:10:23;;;;;;;;;3.25;1.75;;;;;-143.57;100.00;65101.44;5099463;27;45434;-44
2022/06/25 07:12:48;;;;;;;;;1.25;1.00;;;;;-143.57;100.00;65101.44;5099051;27;45934;-45
2022/06/25 07:15:14;;;;;;;;;1.00;1.00;;;;;-143.57;100.00;65101.44;5098633;27;45334;-45
2022/06/25 07:17:39;;;;;;;;;1.00;1.00;;;;;-143.57;100.00;65101.44;5099179;27;45481;-45
2022/06/25 07:20:06;;;;;;;;;2.00;2.00;;;;;-143.57;100.00;65101.44;5099077;27;45403;-45
2022/06/25 07:22:32;;;;;;;;;0.60;0.60;;;;;-143.57;100.00;65101.44;5098397;27;47195;-47
2022/06/25 07:24:57;;;;;;;;;0.75;0.75;;;;;-143.57;100.00;65101.44;5098971;27;45406;-46
2022/06/25 07:27:23;;;;;;;;;2.00;1.00;;;;;-143.57;100.00;65101.44;5098834;27;45428;-43
2022/06/25 07:29:48;;;;;;;;;1.00;0.50;;;;;-143.57;100.00;65101.44;5098377;27;45296;-46
2022/06/25 07:32:13;;;;;;;;;1.50;1.50;;;;;-143.57;100.00;65101.44;5098497;27;45478;-44
2022/06/25 07:34:39;;;;;;;;;1.00;1.00;;;;;-143.57;100.00;65101.44;5098467;27;45152;-46
2022/06/25 07:37:04;;;;;;;;;3.00;1.00;;;;;-143.57;100.00;65101.44;5098806;27;45430;-46
2022/06/25 07:39:30;;;;;;;;;0.50;0.50;;;;;-143.57;100.00;65101.44;5098911;27;45417;-45
2022/06/25 07:41:55;;;;;;;;;1.00;1.00;;;;;-143.57;100.00;65101.44;5098438;27;45193;-45
2022/06/25 07:44:21;;;;;;;;;3.50;1.00;;;;;-143.57;100.00;65101.44;5098069;27;45342;-43
2022/06/25 07:46:46;;;;;;;;;3.50;0.75;;;;;-143.57;100.00;65101.44;5097812;27;45267;-44
2022/06/25 07:49:12;;;;;;;;;0.75;0.75;;;;;-143.57;100.00;65101.44;5098169;27;45455;-45
2022/06/25 07:54:21;;;;;;;;;0.40;0.40;;;;;-143.57;100.00;65101.44;5097956;27;45344;-44
2022/06/25 07:56:46;;;;;;;;;1.00;1.00;;;;;-143.57;100.00;65101.44;5098511;27;45350;-46
2022/06/25 07:59:12;;;;;;;;;0.50;0.50;;;;;-143.57;100.00;65101.44;5098412;27;45448;-44
2022/06/25 08:01:38;;;;;;;;;1.00;1.00;;;;;-143.57;100.00;65101.44;5097794;27;45714;-43
2022/06/25 08:04:03;;;;;;;;;1.00;1.00;;;;;-143.57;100.00;65101.44;5098398;27;45302;-44
2022/06/25 08:06:29;;;;;;;;;2.00;0.00;;;;;-143.57;100.00;65101.44;5098199;27;45750;-45
2022/06/25 08:08:54;;;;;;;;;1.50;1.00;;;;;-143.57;100.00;65101.44;5098604;27;45274;-45
2022/06/25 08:11:20;;;;;;;;;0.75;0.75;;;;;-143.57;100.00;65101.44;5098000;27;45721;-43
2022/06/25 08:13:45;;;;;;;;;1.00;1.00;;;;;-143.57;100.00;65101.44;5098101;27;45461;-44
2022/06/25 08:16:10;;;;;;;;;2.50;1.00;;;;;-143.57;100.00;65101.44;5098155;27;45457;-46
2022/06/25 08:18:38;;;;;;;;;1.50;1.50;;;;;-143.57;100.00;65101.44;5098387;27;45443;-45
2022/06/25 08:21:04;;;;;;;;;0.00;0.00;;;;;-143.57;100.00;65101.44;5097824;27;46374;-45
2022/06/25 08:23:29;;;;;;;;;2.00;2.00;;;;;-143.57;100.00;65101.44;5097659;27;45315;-51
2022/06/25 08:25:55;;;;;;;;;2.25;2.00;;;;;-143.57;100.00;65101.44;5098125;27;45178;-44
2022/06/25 08:28:20;;;;;;;;;1.00;1.00;;;;;-143.57;100.00;65101.44;5098340;27;45290;-45
2022/06/25 08:30:46;;;;;;;;;1.75;1.75;;;;;-143.57;100.00;65101.44;5097868;27;46293;-44
2022/06/25 08:33:11;;;;;;;;;2.00;1.75;;;;;-143.57;100.00;65101.44;5097882;27;45274;-45
2022/06/25 08:35:37;;;;;;;;;4.00;2.75;;;;;-143.57;100.00;65101.44;5097686;27;45422;-47
2022/06/25 08:38:03;;;;;;;;;2.00;0.75;;;;;-143.57;100.00;65101.44;5097976;27;45375;-46
2022/06/25 08:40:28;;;;;;;;;1.00;1.00;;;;;-143.57;100.00;65101.44;5096301;27;45424;-46
2022/06/25 08:42:54;;;;;;;;;1.00;1.00;;;;;-143.57;100.00;65101.44;5097805;27;45394;-44
2022/06/25 08:45:19;;;;;;;;;1.00;1.00;;;;;-143.57;100.00;65101.44;5097909;27;45864;-45
2022/06/25 08:47:50;;;;;;;;;1.75;1.00;;;;;-143.57;100.00;65101.44;5097781;27;45306;-43
2022/06/25 08:50:23;;;;;;;;;1.20;0.80;;;;;-143.57;100.00;65101.44;5079145;27;47160;-44
2022/06/25 08:52:54;;;;;;;;;1.00;0.80;;;;;-143.57;100.00;65101.44;5097624;27;45293;-42
2022/06/25 08:55:38;;;;;;;;;1.00;1.00;;;;;-143.57;100.00;65101.44;5097770;27;45437;-44
2022/06/25 08:58:05;;;;;;;;;3.00;1.20;;;;;-143.57;100.00;65101.44;5097583;27;45596;-43
2022/06/25 09:00:34;;;;;;;;;1.00;1.00;;;;;-143.57;100.00;65101.44;5097227;27;45657;-44
2022/06/25 09:03:00;;;;;;;;;1.00;1.00;;;;;-143.57;100.00;65101.44;5097445;27;45307;-42
2022/06/25 09:05:33;;;;;;;;;2.50;1.00;;;;;-143.57;100.00;65101.44;5097562;27;45344;-43
2022/06/25 09:08:00;;;;;;;;;1.00;0.60;;;;;-143.57;100.00;65101.44;5097605;27;45247;-45
2022/06/25 09:10:27;;;;;;;;;2.00;2.00;;;;;-143.57;100.00;65101.44;5097515;27;46121;-43
2022/06/25 09:13:08;;;;;;;;;2.00;1.00;;;;;-143.57;100.00;65101.44;5097214;27;45439;-45
2022/06/25 09:15:41;;;;;;;;;1.00;1.00;;;;;-143.57;100.00;65101.44;5097264;27;45671;-44
2022/06/25 09:18:09;;;;;;;;;3.80;1.20;;;;;-143.57;100.00;65101.44;5097374;27;45506;-44
2022/06/25 09:20:36;;;;;;;;;3.60;1.80;;;;;-143.57;100.00;65101.44;5097222;27;45314;-45
2022/06/25 09:23:05;;;;;;;;;2.00;2.00;;;;;-143.57;100.00;65101.44;5096834;27;45439;-44
2022/06/25 09:25:32;;;;;;;;;3.40;2.00;;;;;-143.57;100.00;65101.44;5097311;27;45345;-45
2022/06/25 09:27:58;;;;;;;;;2.00;0.40;;;;;-143.57;100.00;65101.44;5097364;27;45177;-44
2022/06/25 09:30:26;;;;;;;;;2.00;2.00;;;;;-143.57;100.00;65101.44;5096969;27;45370;-47
2022/06/25 09:33:00;;;;;;;;;4.20;1.00;;;;;-143.57;100.00;65101.44;5097000;27;45453;-44
2022/06/25 09:35:41;;;;;;;;;2.40;1.80;;;;;-143.57;100.00;65101.44;5097263;27;45485;-45
2022/06/25 09:38:13;;;;;;;;;2.00;2.00;;;;;-143.57;100.00;65101.44;5097229;27;45498;-44
2022/06/25 09:40:48;;;;;;;;;1.80;1.80;;;;;-143.57;100.00;65101.44;5096797;27;45457;-43
2022/06/25 09:43:19;;;;;;;;;4.40;1.80;;;;;-143.57;100.00;65101.44;5096919;27;45418;-43
2022/06/25 09:45:47;;;;;;;;;1.00;1.00;;;;;-143.57;100.00;65101.44;5096959;27;45272;-44
2022/06/25 09:48:20;;;;;;;;;3.00;1.80;;;;;-143.57;100.00;65101.44;5096868;27;45366;-45
2022/06/25 09:51:13;;;;;;;;;1.00;1.00;;;;;-143.57;100.00;65101.44;5096717;27;46263;-45
2022/06/25 09:53:52;;;;;;;;;1.80;1.80;;;;;-143.57;100.00;65101.44;5100348;27;45215;-45
2022/06/25 09:56:27;;;;;;;;;2.20;0.80;;;;;-143.57;100.00;65101.44;5100174;27;45334;-44
2022/06/25 09:58:53;;;;;;;;;1.80;1.80;;;;;-143.57;100.00;65101.44;5100607;27;45414;-42
2022/06/25 10:01:24;;;;;;;;;1.60;1.60;;;;;-143.57;100.00;65101.44;5100158;27;46999;-45
2022/06/25 10:03:50;;;;;;;;;3.00;1.00;;;;;-143.57;100.00;65101.44;5099915;27;45323;-45
2022/06/25 10:06:19;;;;;;;;;1.80;1.80;;;;;-143.57;100.00;65101.44;5099070;27;45326;-43
2022/06/25 10:08:59;;;;;;;;;2.20;2.00;;;;;-143.57;100.00;65101.44;5100208;27;45295;-45
2022/06/25 10:11:27;;;;;;;;;1.20;1.20;;;;;-143.57;100.00;65101.44;5100024;27;46378;-47
2022/06/25 10:13:53;;;;;;;;;1.80;1.40;;;;;-143.57;100.00;65101.44;5099928;27;45348;-43
2022/06/25 10:16:20;;;;;;;;;1.25;1.25;;;;;-143.57;100.00;65101.44;5099753;27;45445;-46
2022/06/25 10:18:48;;;;;;;;;2.00;2.00;;;;;-143.57;100.00;65101.44;5099873;27;45537;-44
2022/06/25 10:21:14;;;;;;;;;2.60;2.00;;;;;-143.57;100.00;65101.44;5099821;27;46359;-44
2022/06/25 10:23:41;;;;;;;;;2.60;1.00;;;;;-143.57;100.00;65101.44;5099696;27;45355;-46
2022/06/25 10:26:07;;;;;;;;;2.80;2.60;;;;;-143.57;100.00;65101.44;5100001;27;45304;-45
2022/06/25 10:28:37;;;;;;;;;3.40;2.20;;;;;-143.57;100.00;65101.44;5099967;27;45371;-44
2022/06/25 10:31:10;;;;;;;;;2.00;2.00;;;;;-143.57;100.00;65101.44;5099475;27;46156;-46
2022/06/25 10:33:56;;;;;;;;;2.00;2.00;;;;;-143.57;100.00;65101.44;5099721;27;45411;-44
2022/06/25 10:36:40;;;;;;;;;1.80;1.80;;;;;-143.57;100.00;65101.44;5099742;27;45312;-42
2022/06/25 10:39:25;;;;;;;;;4.00;4.00;;;;;-143.57;100.00;65101.44;5099850;27;45390;-45
2022/06/25 10:45:29;;;;;;;;;5.60;4.00;;;;;-143.57;100.00;65101.44;5099407;27;45471;-45
2022/06/25 10:47:59;;;;;;;;;4.00;2.20;;;;;-143.57;100.00;65101.44;5099267;27;45217;-45
2022/06/25 10:50:27;;;;;;;;;5.00;2.75;;;;;-143.57;100.00;65101.44;5099442;27;45517;-43
2022/06/25 10:53:01;;;;;;;;;3.00;2.80;;;;;-143.57;100.00;65101.44;5099163;27;46257;-46
2022/06/25 10:55:27;;;;;;;;;3.40;3.40;;;;;-143.57;100.00;65101.44;5099118;27;45429;-48
2022/06/25 10:58:16;;;;;;;;;3.00;3.00;;;;;-143.57;100.00;65101.44;5099545;27;45412;-48
2022/06/25 11:00:49;;;;;;;;;13.00;5.50;;;;;-143.57;100.00;65101.44;5099535;27;45738;-46
2022/06/25 11:03:17;;;;;;;;;3.80;3.80;;;;;-143.57;100.00;65101.44;5097977;27;46347;-43
2022/06/25 11:05:45;;;;;;;;;2.80;2.80;;;;;-143.57;100.00;65101.44;5099028;27;45371;-45
2022/06/25 11:08:11;;;;;;;;;8.00;5.00;;;;;-143.57;100.00;65101.44;5081043;27;45311;-44
2022/06/25 11:10:37;;;;;;;;;9.50;6.00;;;;;-143.57;100.00;65101.44;5099229;27;45461;-43
2022/06/25 11:13:03;;;;;;;;;7.00;6.00;;;;;-143.57;100.00;65101.44;5098939;27;46380;-46
2022/06/25 11:15:44;;;;;;;;;6.75;4.75;;;;;-143.57;100.00;65101.44;5099058;27;45255;-48
2022/06/25 11:18:12;;;;;;;;;4.80;4.40;;;;;-143.57;100.00;65101.44;5098806;27;45448;-48
2022/06/25 11:20:40;;;;;;;;;4.80;4.00;;;;;-143.57;100.00;65101.44;5099244;27;45421;-46
2022/06/25 11:23:09;;;;;;;;;5.00;3.00;;;;;-143.57;100.00;65101.44;5098675;27;45300;-43